createdAt,value
2016-05-03T00:00:00.146Z,13.2
2016-05-03T00:01:00.133Z,13.17
2016-05-03T00:02:00.105Z,13.2
2016-05-03T00:02:59.920Z,13.22
2016-05-03T00:04:00.063Z,13.17
2016-05-03T00:04:59.879Z,13.14
2016-05-03T00:06:00.132Z,13.2
2016-05-03T00:06:59.852Z,13.24
2016-05-03T00:07:59.980Z,13.17
2016-05-03T00:08:59.951Z,13.24
2016-05-03T00:09:59.924Z,13.18
2016-05-03T00:10:59.910Z,13.22
2016-05-03T00:11:59.726Z,13.22
2016-05-03T00:12:59.854Z,13.2
2016-05-03T00:13:59.840Z,13.18
2016-05-03T00:14:59.812Z,13.14
2016-05-03T00:15:59.799Z,13.21
2016-05-03T00:16:59.770Z,13.2
2016-05-03T00:17:59.757Z,13.18
2016-05-03T00:18:59.729Z,13.2
2016-05-03T00:19:59.701Z,13.14
2016-05-03T00:20:59.687Z,13.2
2016-05-03T00:22:00.784Z,13.14
2016-05-03T00:22:59.646Z,13.07
2016-05-03T00:23:59.461Z,13.2
2016-05-03T00:24:59.605Z,13.14
2016-05-03T00:25:59.590Z,13.15
2016-05-03T00:26:59.565Z,13.15
2016-05-03T00:27:59.626Z,13.12
2016-05-03T00:28:59.506Z,13.18
2016-05-03T00:29:59.482Z,13.15
2016-05-03T00:30:59.468Z,13.17
2016-05-03T00:31:59.457Z,13.14
2016-05-03T00:32:59.460Z,13.2
2016-05-03T00:33:59.524Z,13.14
2016-05-03T00:34:59.370Z,13.14
2016-05-03T00:35:59.358Z,13.17
2016-05-03T00:36:59.470Z,13.12
2016-05-03T00:37:59.304Z,13.14
2016-05-03T00:38:59.291Z,13.18
2016-05-03T00:39:59.106Z,13.12
2016-05-03T00:40:59.249Z,13.2
2016-05-03T00:41:59.220Z,13.18
2016-05-03T00:42:59.193Z,13.09
2016-05-03T00:43:59.179Z,13.14
2016-05-03T00:44:59.182Z,13.09
2016-05-03T00:45:59.137Z,13.06
2016-05-03T00:46:59.125Z,13.17
2016-05-03T00:47:59.096Z,12.99
2016-05-03T00:48:59.084Z,13.02
2016-05-03T00:49:59.054Z,13.11
2016-05-03T00:50:59.042Z,13.09
2016-05-03T00:51:59.123Z,13.15
2016-05-03T00:52:58.828Z,13.06
2016-05-03T00:53:58.987Z,13.03
2016-05-03T00:54:58.959Z,13.04
2016-05-03T00:55:58.945Z,13.06
2016-05-03T00:56:58.902Z,13.04
2016-05-03T00:57:58.889Z,13.06
2016-05-03T00:58:58.844Z,13.09
2016-05-03T00:59:58.831Z,13.03
2016-05-03T01:00:58.819Z,13.03
2016-05-03T01:01:58.790Z,13.14
2016-05-03T01:02:58.622Z,13.02
2016-05-03T01:03:58.733Z,13.06
2016-05-03T01:04:58.719Z,13.18
2016-05-03T01:05:58.552Z,13.02
2016-05-03T01:06:58.960Z,13.15
2016-05-03T01:07:58.650Z,13.03
2016-05-03T01:08:58.621Z,13.06
2016-05-03T01:09:58.609Z,13.06
2016-05-03T01:10:58.595Z,13.04
2016-05-03T01:11:58.568Z,13.06
2016-05-03T01:12:58.554Z,13.03
2016-05-03T01:13:58.353Z,13.09
2016-05-03T01:14:58.513Z,13.07
2016-05-03T01:15:58.328Z,13.04
2016-05-03T01:16:58.456Z,13.07
2016-05-03T01:17:58.442Z,13.04
2016-05-03T01:18:58.415Z,13.09
2016-05-03T01:19:58.417Z,13.02
2016-05-03T01:20:58.373Z,13
2016-05-03T01:21:58.859Z,13.09
2016-05-03T01:22:58.331Z,13.04
2016-05-03T01:23:58.318Z,13.06
2016-05-03T01:24:58.274Z,13.03
2016-05-03T01:25:58.261Z,13.06
2016-05-03T01:26:58.233Z,13.02
2016-05-03T01:27:58.079Z,13.02
2016-05-03T01:28:58.050Z,12.99
2016-05-03T01:29:58.178Z,13.04
2016-05-03T01:30:58.149Z,13
2016-05-03T01:31:58.122Z,13.06
2016-05-03T01:32:58.124Z,13.02
2016-05-03T01:33:58.080Z,13.04
2016-05-03T01:34:58.083Z,13.04
2016-05-03T01:35:58.038Z,13.06
2016-05-03T01:36:58.025Z,12.99
2016-05-03T01:37:57.981Z,13.02
2016-05-03T01:38:57.968Z,13.06
2016-05-03T01:39:57.955Z,12.89
2016-05-03T01:40:57.927Z,12.92
2016-05-03T01:41:57.914Z,12.89
2016-05-03T01:42:57.885Z,12.88
2016-05-03T01:43:57.872Z,13
2016-05-03T01:44:57.671Z,12.95
2016-05-03T01:45:57.830Z,12.87
2016-05-03T01:46:57.787Z,12.87
2016-05-03T01:47:57.774Z,12.87
2016-05-03T01:48:57.760Z,12.88
2016-05-03T01:49:57.732Z,12.89
2016-05-03T01:50:57.704Z,12.87
2016-05-03T01:51:58.003Z,12.84
2016-05-03T01:52:57.663Z,12.87
2016-05-03T01:53:57.649Z,12.81
2016-05-03T01:54:57.620Z,12.89
2016-05-03T01:55:57.437Z,12.92
2016-05-03T01:56:57.579Z,12.92
2016-05-03T01:57:57.394Z,12.88
2016-05-03T01:58:57.537Z,12.85
2016-05-03T01:59:57.493Z,12.81
2016-05-03T02:00:57.496Z,12.81
2016-05-03T02:01:57.467Z,12.81
2016-05-03T02:02:57.439Z,12.77
2016-05-03T02:03:57.411Z,12.84
2016-05-03T02:04:57.398Z,12.77
2016-05-03T02:05:57.370Z,12.79
2016-05-03T02:06:57.902Z,12.81
2016-05-03T02:07:57.344Z,12.77
2016-05-03T02:08:57.158Z,12.75
2016-05-03T02:09:57.286Z,12.78
2016-05-03T02:10:57.289Z,12.78
2016-05-03T02:11:57.088Z,12.75
2016-05-03T02:12:57.216Z,12.75
2016-05-03T02:13:57.047Z,12.71
2016-05-03T02:14:57.174Z,12.7
2016-05-03T02:15:57.161Z,12.75
2016-05-03T02:16:57.133Z,12.71
2016-05-03T02:17:57.104Z,12.77
2016-05-03T02:18:57.091Z,12.74
2016-05-03T02:19:57.063Z,12.75
2016-05-03T02:20:57.035Z,12.74
2016-05-03T02:21:57.068Z,12.7
2016-05-03T02:22:56.993Z,12.71
2016-05-03T02:23:56.979Z,12.75
2016-05-03T02:24:56.951Z,12.71
2016-05-03T02:25:56.923Z,12.71
2016-05-03T02:26:56.910Z,12.7
2016-05-03T02:27:56.568Z,12.75
2016-05-03T02:28:56.853Z,12.71
2016-05-03T02:29:56.856Z,12.74
2016-05-03T02:30:56.812Z,12.67
2016-05-03T02:31:56.798Z,12.64
2016-05-03T02:32:56.472Z,12.78
2016-05-03T02:33:56.757Z,12.74
2016-05-03T02:34:56.728Z,12.78
2016-05-03T02:35:56.715Z,12.69
2016-05-03T02:36:56.374Z,12.69
2016-05-03T02:37:56.518Z,12.7
2016-05-03T02:38:56.489Z,12.67
2016-05-03T02:39:56.460Z,12.74
2016-05-03T02:40:56.603Z,12.66
2016-05-03T02:41:56.575Z,12.67
2016-05-03T02:42:56.391Z,12.67
2016-05-03T02:43:56.519Z,12.64
2016-05-03T02:44:56.349Z,12.69
2016-05-03T02:45:56.492Z,12.67
2016-05-03T02:46:56.464Z,12.69
2016-05-03T02:47:56.451Z,12.62
2016-05-03T02:48:56.422Z,12.62
2016-05-03T02:49:56.252Z,12.7
2016-05-03T02:50:56.225Z,12.7
2016-05-03T02:51:57.743Z,12.69
2016-05-03T02:52:56.168Z,12.64
2016-05-03T02:53:56.311Z,12.7
2016-05-03T02:54:56.283Z,12.74
2016-05-03T02:55:56.269Z,12.69
2016-05-03T02:56:56.241Z,12.62
2016-05-03T02:57:55.900Z,12.6
2016-05-03T02:58:56.184Z,12.63
2016-05-03T02:59:56.015Z,12.67
2016-05-03T03:00:55.986Z,12.69
2016-05-03T03:01:56.129Z,12.67
2016-05-03T03:02:56.101Z,12.69
2016-05-03T03:03:56.073Z,12.75
2016-05-03T03:04:55.747Z,12.66
2016-05-03T03:05:55.734Z,12.7
2016-05-03T03:06:56.440Z,12.7
2016-05-03T03:07:55.989Z,12.7
2016-05-03T03:08:55.960Z,12.75
2016-05-03T03:09:55.948Z,12.75
2016-05-03T03:10:55.919Z,12.71
2016-05-03T03:11:55.891Z,12.75
2016-05-03T03:12:55.877Z,12.71
2016-05-03T03:13:55.846Z,12.7
2016-05-03T03:14:55.834Z,12.78
2016-05-03T03:15:55.805Z,12.71
2016-05-03T03:16:55.777Z,12.74
2016-05-03T03:17:55.748Z,12.7
2016-05-03T03:18:55.735Z,12.75
2016-05-03T03:19:55.722Z,12.75
2016-05-03T03:20:55.693Z,12.7
2016-05-03T03:21:55.524Z,12.71
2016-05-03T03:22:55.668Z,12.71
2016-05-03T03:23:55.624Z,12.7
2016-05-03T03:24:55.594Z,12.74
2016-05-03T03:25:55.582Z,12.75
2016-05-03T03:26:55.553Z,12.71
2016-05-03T03:27:55.556Z,12.75
2016-05-03T03:28:55.512Z,12.74
2016-05-03T03:29:55.483Z,12.66
2016-05-03T03:30:55.486Z,12.66
2016-05-03T03:31:55.286Z,12.69
2016-05-03T03:32:55.429Z,12.7
2016-05-03T03:33:55.244Z,12.66
2016-05-03T03:34:55.387Z,12.74
2016-05-03T03:35:55.203Z,12.6
2016-05-03T03:36:55.346Z,12.7
2016-05-03T03:37:55.676Z,12.67
2016-05-03T03:38:55.273Z,12.64
2016-05-03T03:39:55.292Z,12.64
2016-05-03T03:40:55.247Z,12.64
2016-05-03T03:41:55.219Z,12.64
2016-05-03T03:42:55.206Z,12.69
2016-05-03T03:43:55.178Z,12.67
2016-05-03T03:44:55.165Z,12.67
2016-05-03T03:45:55.119Z,12.7
2016-05-03T03:46:55.107Z,12.7
2016-05-03T03:47:55.094Z,12.75
2016-05-03T03:48:54.909Z,12.77
2016-05-03T03:49:55.036Z,12.71
2016-05-03T03:50:54.884Z,12.79
2016-05-03T03:51:55.011Z,12.79
2016-05-03T03:52:54.967Z,12.78
2016-05-03T03:53:54.797Z,12.77
2016-05-03T03:54:54.785Z,12.81
2016-05-03T03:55:54.912Z,12.87
2016-05-03T03:56:54.885Z,12.84
2016-05-03T03:57:54.715Z,12.85
2016-05-03T03:58:54.842Z,12.81
2016-05-03T03:59:54.657Z,12.84
2016-05-03T04:00:54.801Z,12.74
2016-05-03T04:01:54.788Z,12.84
2016-05-03T04:02:54.744Z,12.78
2016-05-03T04:03:54.731Z,12.79
2016-05-03T04:04:54.718Z,12.81
2016-05-03T04:05:54.674Z,12.84
2016-05-03T04:06:54.677Z,12.84
2016-05-03T04:07:54.492Z,12.77
2016-05-03T04:08:54.619Z,12.81
2016-05-03T04:09:54.590Z,12.78
2016-05-03T04:10:54.578Z,12.77
2016-05-03T04:11:54.550Z,12.78
2016-05-03T04:12:54.381Z,12.75
2016-05-03T04:13:54.509Z,12.77
2016-05-03T04:14:54.478Z,12.7
2016-05-03T04:15:54.466Z,12.77
2016-05-03T04:16:54.438Z,12.81
2016-05-03T04:17:54.409Z,12.75
2016-05-03T04:18:54.412Z,12.7
2016-05-03T04:19:54.367Z,12.74
2016-05-03T04:20:54.355Z,12.7
2016-05-03T04:21:54.331Z,12.75
2016-05-03T04:22:54.348Z,12.7
2016-05-03T04:23:54.070Z,12.77
2016-05-03T04:24:54.260Z,12.67
2016-05-03T04:25:54.419Z,12.7
2016-05-03T04:26:54.277Z,12.63
2016-05-03T04:27:54.453Z,12.59
2016-05-03T04:28:54.440Z,12.54
2016-05-03T04:29:54.428Z,12.56
2016-05-03T04:30:54.416Z,12.52
2016-05-03T04:31:54.419Z,12.44
2016-05-03T04:32:54.411Z,12.42
2016-05-03T04:33:54.374Z,12.44
2016-05-03T04:34:54.383Z,12.23
2016-05-03T04:35:54.345Z,12.09
2016-05-03T04:36:55.040Z,12.04
2016-05-03T04:37:54.311Z,11.97
2016-05-03T04:38:54.285Z,11.86
2016-05-03T04:39:54.273Z,11.75
2016-05-03T04:40:54.233Z,11.74
2016-05-03T04:41:54.238Z,11.52
2016-05-03T04:42:54.209Z,11.43
2016-05-03T04:43:54.182Z,11.38
2016-05-03T04:44:54.154Z,11.34
2016-05-03T04:45:54.142Z,11.28
2016-05-03T04:46:54.114Z,11.29
2016-05-03T04:47:54.086Z,11.27
2016-05-03T04:48:54.073Z,11.1
2016-05-03T04:49:54.045Z,11.09
2016-05-03T04:50:54.032Z,11.09
2016-05-03T04:51:54.520Z,11.1
2016-05-03T04:52:53.976Z,11.02
2016-05-03T04:53:53.946Z,11.02
2016-05-03T04:54:53.934Z,10.98
2016-05-03T04:55:53.890Z,10.84
2016-05-03T04:56:53.893Z,10.83
2016-05-03T04:57:53.723Z,10.78
2016-05-03T04:58:53.835Z,10.78
2016-05-03T04:59:53.651Z,10.78
2016-05-03T05:00:53.778Z,10.78
2016-05-03T05:01:53.765Z,10.74
2016-05-03T05:02:53.737Z,10.71
2016-05-03T05:03:53.724Z,10.71
2016-05-03T05:04:53.695Z,10.58
2016-05-03T05:05:53.667Z,10.59
2016-05-03T05:06:53.497Z,10.58
2016-05-03T05:07:53.938Z,10.55
2016-05-03T05:08:53.441Z,10.51
2016-05-03T05:09:53.584Z,10.62
2016-05-03T05:10:53.555Z,10.58
2016-05-03T05:11:53.527Z,10.56
2016-05-03T05:12:53.498Z,10.58
2016-05-03T05:13:53.469Z,10.46
2016-05-03T05:14:53.441Z,10.52
2016-05-03T05:15:53.428Z,10.43
2016-05-03T05:16:53.258Z,10.44
2016-05-03T05:17:53.386Z,10.44
2016-05-03T05:18:53.202Z,10.39
2016-05-03T05:19:53.329Z,10.4
2016-05-03T05:20:53.301Z,10.32
2016-05-03T05:21:53.288Z,10.43
2016-05-03T05:22:53.291Z,10.36
2016-05-03T05:23:53.231Z,10.37
2016-05-03T05:24:53.046Z,10.34
2016-05-03T05:25:53.033Z,10.22
2016-05-03T05:26:53.004Z,10.26
2016-05-03T05:27:53.132Z,10.21
2016-05-03T05:28:52.947Z,10.24
2016-05-03T05:29:53.075Z,10.1
2016-05-03T05:30:53.078Z,10.14
2016-05-03T05:31:52.878Z,10.18
2016-05-03T05:32:53.005Z,10.14
2016-05-03T05:33:52.836Z,10.14
2016-05-03T05:34:52.964Z,10.15
2016-05-03T05:35:52.934Z,10.01
2016-05-03T05:36:52.922Z,10.03
2016-05-03T05:37:52.894Z,10
2016-05-03T05:38:52.864Z,10.01
2016-05-03T05:39:52.853Z,9.97
2016-05-03T05:40:52.667Z,10.06
2016-05-03T05:41:52.794Z,9.86
2016-05-03T05:42:52.766Z,9.93
2016-05-03T05:43:52.738Z,10.03
2016-05-03T05:44:52.724Z,9.97
2016-05-03T05:45:52.696Z,9.97
2016-05-03T05:46:52.668Z,10.01
2016-05-03T05:47:52.483Z,9.99
2016-05-03T05:48:52.610Z,10
2016-05-03T05:49:52.597Z,9.94
2016-05-03T05:50:52.569Z,9.99
2016-05-03T05:51:52.541Z,9.89
2016-05-03T05:52:52.371Z,9.86
2016-05-03T05:53:52.499Z,9.94
2016-05-03T05:54:52.486Z,9.85
2016-05-03T05:55:52.285Z,10.07
2016-05-03T05:56:52.429Z,10.01
2016-05-03T05:57:52.401Z,9.97
2016-05-03T05:58:52.371Z,10.09
2016-05-03T05:59:52.359Z,10.18
2016-05-03T06:00:52.315Z,10.19
2016-05-03T06:01:52.301Z,10.12
2016-05-03T06:02:52.273Z,10.21
2016-05-03T06:03:52.244Z,10.22
2016-05-03T06:04:52.232Z,10.21
2016-05-03T06:05:52.204Z,10.21
2016-05-03T06:06:52.190Z,10.25
2016-05-03T06:07:52.161Z,10.24
2016-05-03T06:08:51.977Z,10.25
2016-05-03T06:09:52.105Z,10.28
2016-05-03T06:10:51.951Z,10.25
2016-05-03T06:11:51.907Z,10.24
2016-05-03T06:12:52.050Z,10.34
2016-05-03T06:13:51.865Z,10.28
2016-05-03T06:14:51.978Z,10.32
2016-05-03T06:15:51.949Z,10.33
2016-05-03T06:16:51.952Z,10.21
2016-05-03T06:17:51.923Z,10.34
2016-05-03T06:18:51.583Z,10.36
2016-05-03T06:19:51.866Z,10.4
2016-05-03T06:20:51.838Z,10.39
2016-05-03T06:21:51.808Z,10.39
2016-05-03T06:22:51.921Z,10.46
2016-05-03T06:23:51.768Z,10.55
2016-05-03T06:24:51.739Z,10.55
2016-05-03T06:25:51.569Z,10.6
2016-05-03T06:26:51.696Z,10.59
2016-05-03T06:27:51.529Z,10.62
2016-05-03T06:28:51.484Z,10.73
2016-05-03T06:29:51.627Z,10.77
2016-05-03T06:30:51.599Z,10.91
2016-05-03T06:31:51.570Z,10.98
2016-05-03T06:32:51.385Z,11.03
2016-05-03T06:33:51.529Z,11.11
2016-05-03T06:34:51.500Z,11.28
2016-05-03T06:35:51.471Z,11.25
2016-05-03T06:36:51.459Z,11.34
2016-05-03T06:37:51.431Z,11.46
2016-05-03T06:38:51.416Z,11.53
2016-05-03T06:39:51.389Z,11.57
2016-05-03T06:40:51.359Z,11.7
2016-05-03T06:41:51.362Z,11.87
2016-05-03T06:42:51.319Z,11.93
2016-05-03T06:43:51.306Z,11.96
2016-05-03T06:44:51.277Z,12.05
2016-05-03T06:45:51.232Z,12.13
2016-05-03T06:46:51.235Z,12.2
2016-05-03T06:47:50.894Z,12.06
2016-05-03T06:48:51.022Z,12.2
2016-05-03T06:49:51.166Z,12.13
2016-05-03T06:50:51.136Z,12.33
2016-05-03T06:51:51.108Z,12.26
2016-05-03T06:52:50.971Z,12.19
2016-05-03T06:53:51.066Z,12.29
2016-05-03T06:54:50.726Z,12.2
2016-05-03T06:55:51.024Z,12.23
2016-05-03T06:56:51.013Z,12.16
2016-05-03T06:57:50.812Z,12.41
2016-05-03T06:58:50.955Z,12.51
2016-05-03T06:59:50.943Z,12.62
2016-05-03T07:00:50.913Z,12.7
2016-05-03T07:01:50.885Z,12.79
2016-05-03T07:02:50.716Z,12.7
2016-05-03T07:03:50.843Z,12.7
2016-05-03T07:04:50.674Z,12.82
2016-05-03T07:05:50.646Z,12.93
2016-05-03T07:06:50.618Z,13
2016-05-03T07:07:50.479Z,13.18
2016-05-03T07:08:50.732Z,13.14
2016-05-03T07:09:50.703Z,13.07
2016-05-03T07:10:50.690Z,12.93
2016-05-03T07:11:50.678Z,12.89
2016-05-03T07:12:50.650Z,12.82
2016-05-03T07:13:50.621Z,12.93
2016-05-03T07:14:50.623Z,12.87
2016-05-03T07:15:50.439Z,12.85
2016-05-03T07:16:50.425Z,12.87
2016-05-03T07:17:50.553Z,12.93
2016-05-03T07:18:50.509Z,12.77
2016-05-03T07:19:50.496Z,12.71
2016-05-03T07:20:50.467Z,12.69
2016-05-03T07:21:50.299Z,12.64
2016-05-03T07:22:50.302Z,12.59
2016-05-03T07:23:50.413Z,12.38
2016-05-03T07:24:50.385Z,12.41
2016-05-03T07:25:50.372Z,12.44
2016-05-03T07:26:50.343Z,12.46
2016-05-03T07:27:50.330Z,12.48
2016-05-03T07:28:50.301Z,12.46
2016-05-03T07:29:50.133Z,12.6
2016-05-03T07:30:50.260Z,12.52
2016-05-03T07:31:50.232Z,12.59
2016-05-03T07:32:50.063Z,12.63
2016-05-03T07:33:50.206Z,12.66
2016-05-03T07:34:50.162Z,12.62
2016-05-03T07:35:49.992Z,12.7
2016-05-03T07:36:50.120Z,12.59
2016-05-03T07:37:50.123Z,12.71
2016-05-03T07:38:50.078Z,12.6
2016-05-03T07:39:50.066Z,12.69
2016-05-03T07:40:50.037Z,12.79
2016-05-03T07:41:50.024Z,12.78
2016-05-03T07:42:49.996Z,12.88
2016-05-03T07:43:49.983Z,13.06
2016-05-03T07:44:49.814Z,13.17
2016-05-03T07:45:49.769Z,13.18
2016-05-03T07:46:49.912Z,13.22
2016-05-03T07:47:49.884Z,13.51
2016-05-03T07:48:49.872Z,14.75
2016-05-03T07:49:49.842Z,15.64
2016-05-03T07:50:49.673Z,16.62
2016-05-03T07:51:49.801Z,17.28
2016-05-03T07:52:51.350Z,17.13
2016-05-03T07:53:49.775Z,17.25
2016-05-03T07:54:49.747Z,17.17
2016-05-03T07:55:49.734Z,18.09
2016-05-03T07:56:49.721Z,19.06
2016-05-03T07:57:49.691Z,19.39
2016-05-03T07:58:50.554Z,20.24
2016-05-03T07:59:49.666Z,21.02
2016-05-03T08:00:49.638Z,21.76
2016-05-03T08:01:49.469Z,21.76
2016-05-03T08:02:49.456Z,21.04
2016-05-03T08:03:49.599Z,19.98
2016-05-03T08:04:49.602Z,19.25
2016-05-03T08:05:49.558Z,18.58
2016-05-03T08:06:49.560Z,18.39
2016-05-03T08:07:49.391Z,17.36
2016-05-03T08:08:49.363Z,17.23
2016-05-03T08:09:49.506Z,16.86
2016-05-03T08:10:49.492Z,16.56
2016-05-03T08:11:49.465Z,16.4
2016-05-03T08:12:49.451Z,16.56
2016-05-03T08:13:49.281Z,16.42
2016-05-03T08:14:49.410Z,16.38
2016-05-03T08:15:49.256Z,16.55
2016-05-03T08:16:49.384Z,16.73
2016-05-03T08:17:49.215Z,16.96
2016-05-03T08:18:49.202Z,17.22
2016-05-03T08:19:49.345Z,17.13
2016-05-03T08:20:49.316Z,17.13
2016-05-03T08:21:49.319Z,17.28
2016-05-03T08:22:49.134Z,17.51
2016-05-03T08:23:49.262Z,17.84
2016-05-03T08:24:49.249Z,18.12
2016-05-03T08:25:49.080Z,18.67
2016-05-03T08:26:49.224Z,19.23
2016-05-03T08:27:49.194Z,19.17
2016-05-03T08:28:49.182Z,18.83
2016-05-03T08:29:49.169Z,18.61
2016-05-03T08:30:49.156Z,18.59
2016-05-03T08:31:49.143Z,19.06
2016-05-03T08:32:48.958Z,19.57
2016-05-03T08:33:49.101Z,19.7
2016-05-03T08:34:49.104Z,19.98
2016-05-03T08:35:49.076Z,20.59
2016-05-03T08:36:49.078Z,20.86
2016-05-03T08:37:49.049Z,20.33
2016-05-03T08:38:49.052Z,21.02
2016-05-03T08:39:49.023Z,21.08
2016-05-03T08:40:49.011Z,21.69
2016-05-03T08:41:48.998Z,21.09
2016-05-03T08:42:48.828Z,20.28
2016-05-03T08:43:48.972Z,19.79
2016-05-03T08:44:48.804Z,19.69
2016-05-03T08:45:48.790Z,19.36
2016-05-03T08:46:48.933Z,19.55
2016-05-03T08:47:48.921Z,19.08
2016-05-03T08:48:48.751Z,19.15
2016-05-03T08:49:48.894Z,18.55
2016-05-03T08:50:48.866Z,18.43
2016-05-03T08:51:48.869Z,18.57
2016-05-03T08:52:48.543Z,18.33
2016-05-03T08:53:48.842Z,17.67
2016-05-03T08:54:48.830Z,17.62
2016-05-03T08:55:48.630Z,17.82
2016-05-03T08:56:48.633Z,17.87
2016-05-03T08:57:48.791Z,17.51
2016-05-03T08:58:48.591Z,17.32
2016-05-03T08:59:48.750Z,17.06
2016-05-03T09:00:48.455Z,16.77
2016-05-03T09:01:48.693Z,16.34
2016-05-03T09:02:48.695Z,16
2016-05-03T09:03:48.666Z,15.96
2016-05-03T09:04:48.513Z,15.92
2016-05-03T09:05:48.641Z,16.12
2016-05-03T09:06:48.612Z,16.22
2016-05-03T09:07:48.662Z,16.16
2016-05-03T09:08:48.587Z,16.34
2016-05-03T09:09:48.401Z,15.99
2016-05-03T09:10:48.529Z,16.15
2016-05-03T09:11:48.532Z,16.03
2016-05-03T09:12:48.504Z,15.85
2016-05-03T09:13:48.490Z,15.66
2016-05-03T09:14:48.478Z,15.68
2016-05-03T09:15:48.448Z,15.68
2016-05-03T09:16:48.420Z,15.79
2016-05-03T09:17:48.407Z,15.66
2016-05-03T09:18:48.378Z,15.68
2016-05-03T09:19:48.366Z,15.64
2016-05-03T09:20:48.353Z,15.48
2016-05-03T09:21:48.324Z,15.49
2016-05-03T09:22:48.675Z,15.45
2016-05-03T09:23:48.298Z,15.6
2016-05-03T09:24:48.114Z,15.45
2016-05-03T09:25:48.257Z,15.48
2016-05-03T09:26:48.244Z,15.15
2016-05-03T09:27:48.216Z,15.21
2016-05-03T09:28:48.203Z,15.01
2016-05-03T09:29:48.174Z,15.17
2016-05-03T09:30:48.161Z,15.27
2016-05-03T09:31:48.132Z,15.21
2016-05-03T09:32:48.104Z,15.19
2016-05-03T09:33:48.090Z,15.28
2016-05-03T09:34:47.907Z,15.45
2016-05-03T09:35:48.049Z,15.74
2016-05-03T09:36:48.052Z,15.75
2016-05-03T09:37:47.961Z,15.66
2016-05-03T09:38:47.995Z,15.78
2016-05-03T09:39:47.826Z,15.84
2016-05-03T09:40:47.813Z,15.68
2016-05-03T09:41:47.800Z,15.6
2016-05-03T09:42:47.928Z,15.66
2016-05-03T09:43:47.743Z,15.67
2016-05-03T09:44:47.871Z,15.72
2016-05-03T09:45:47.701Z,15.85
2016-05-03T09:46:47.845Z,15.52
2016-05-03T09:47:47.817Z,15.38
2016-05-03T09:48:47.647Z,15.23
2016-05-03T09:49:47.618Z,15.35
2016-05-03T09:50:47.761Z,15.36
2016-05-03T09:51:47.749Z,15.31
2016-05-03T09:52:47.564Z,15.26
2016-05-03T09:53:47.691Z,15.01
2016-05-03T09:54:47.679Z,14.98
2016-05-03T09:55:47.509Z,15.19
2016-05-03T09:56:47.653Z,15.26
2016-05-03T09:57:47.625Z,15.26
2016-05-03T09:58:47.439Z,15.24
2016-05-03T09:59:47.599Z,15.23
2016-05-03T10:00:47.569Z,15.21
2016-05-03T10:01:47.542Z,15.12
2016-05-03T10:02:47.528Z,15.36
2016-05-03T10:03:47.202Z,15.43
2016-05-03T10:04:47.487Z,15.28
2016-05-03T10:05:47.318Z,15.13
2016-05-03T10:06:47.445Z,15.08
2016-05-03T10:07:48.651Z,14.88
2016-05-03T10:08:47.404Z,14.94
2016-05-03T10:09:47.390Z,14.75
2016-05-03T10:10:47.362Z,14.74
2016-05-03T10:11:47.349Z,14.65
2016-05-03T10:12:47.337Z,14.62
2016-05-03T10:13:47.307Z,14.62
2016-05-03T10:14:47.279Z,14.57
2016-05-03T10:15:47.126Z,14.56
2016-05-03T10:16:47.254Z,14.64
2016-05-03T10:17:47.240Z,14.54
2016-05-03T10:18:47.212Z,14.46
2016-05-03T10:19:47.214Z,14.5
2016-05-03T10:20:47.156Z,14.44
2016-05-03T10:21:47.158Z,14.35
2016-05-03T10:22:47.628Z,14.28
2016-05-03T10:23:46.959Z,14.28
2016-05-03T10:24:47.103Z,14.07
2016-05-03T10:25:47.059Z,14.32
2016-05-03T10:26:47.047Z,14.52
2016-05-03T10:27:47.064Z,14.31
2016-05-03T10:28:47.005Z,14.28
2016-05-03T10:29:46.976Z,14.46
2016-05-03T10:30:46.963Z,14.53
2016-05-03T10:31:46.950Z,14.54
2016-05-03T10:32:46.766Z,14.65
2016-05-03T10:33:46.752Z,14.71
2016-05-03T10:34:46.880Z,14.72
2016-05-03T10:35:46.852Z,14.68
2016-05-03T10:36:46.855Z,14.84
2016-05-03T10:37:46.951Z,14.9
2016-05-03T10:38:46.797Z,14.87
2016-05-03T10:39:46.769Z,15.02
2016-05-03T10:40:46.599Z,15.15
2016-05-03T10:41:46.743Z,15.31
2016-05-03T10:42:46.558Z,15.59
2016-05-03T10:43:46.701Z,15.76
2016-05-03T10:44:46.673Z,15.94
2016-05-03T10:45:46.660Z,16
2016-05-03T10:46:46.475Z,16.14
2016-05-03T10:47:46.618Z,16.15
2016-05-03T10:48:46.620Z,16
2016-05-03T10:49:46.420Z,15.93
2016-05-03T10:50:46.564Z,15.97
2016-05-03T10:51:46.535Z,15.94
2016-05-03T10:52:46.507Z,15.97
2016-05-03T10:53:46.494Z,15.93
2016-05-03T10:54:46.464Z,15.93
2016-05-03T10:55:46.453Z,15.79
2016-05-03T10:56:46.439Z,15.76
2016-05-03T10:57:46.426Z,15.75
2016-05-03T10:58:46.383Z,15.56
2016-05-03T10:59:46.369Z,15.54
2016-05-03T11:00:46.356Z,15.46
2016-05-03T11:01:46.328Z,15.48
2016-05-03T11:02:46.314Z,15.33
2016-05-03T11:03:46.286Z,15.28
2016-05-03T11:04:46.274Z,15.23
2016-05-03T11:05:46.260Z,15.27
2016-05-03T11:06:46.232Z,15.39
2016-05-03T11:07:46.594Z,15.54
2016-05-03T11:08:46.190Z,15.67
2016-05-03T11:09:46.178Z,15.94
2016-05-03T11:10:46.165Z,16
2016-05-03T11:11:45.979Z,16
2016-05-03T11:12:45.967Z,16.06
2016-05-03T11:13:46.093Z,15.89
2016-05-03T11:14:46.081Z,15.68
2016-05-03T11:15:46.053Z,15.33
2016-05-03T11:16:45.884Z,15.09
2016-05-03T11:17:46.027Z,15.09
2016-05-03T11:18:45.998Z,15.02
2016-05-03T11:19:45.985Z,14.87
2016-05-03T11:20:45.800Z,14.81
2016-05-03T11:21:45.788Z,14.84
2016-05-03T11:22:46.978Z,14.93
2016-05-03T11:23:45.731Z,14.87
2016-05-03T11:24:45.874Z,14.83
2016-05-03T11:25:45.861Z,14.9
2016-05-03T11:26:45.848Z,15.02
2016-05-03T11:27:45.664Z,15.27
2016-05-03T11:28:45.650Z,15.39
2016-05-03T11:29:45.622Z,15.46
2016-05-03T11:30:45.609Z,15.59
2016-05-03T11:31:45.736Z,15.46
2016-05-03T11:32:45.724Z,15.56
2016-05-03T11:33:45.695Z,15.75
2016-05-03T11:34:45.666Z,15.84
2016-05-03T11:35:45.653Z,15.96
2016-05-03T11:36:45.641Z,16.15
2016-05-03T11:37:46.533Z,16.23
2016-05-03T11:38:45.599Z,16.4
2016-05-03T11:39:45.586Z,16.4
2016-05-03T11:40:45.557Z,16.44
2016-05-03T11:41:45.561Z,16.3
2016-05-03T11:42:45.532Z,15.96
2016-05-03T11:43:45.504Z,15.93
2016-05-03T11:44:45.350Z,15.88
2016-05-03T11:45:45.462Z,15.93
2016-05-03T11:46:45.448Z,15.93
2016-05-03T11:47:45.279Z,15.63
2016-05-03T11:48:45.876Z,15.45
2016-05-03T11:49:45.395Z,15.42
2016-05-03T11:50:45.382Z,15.42
2016-05-03T11:51:45.353Z,15.57
2016-05-03T11:52:45.340Z,15.41
2016-05-03T11:53:45.311Z,15.41
2016-05-03T11:54:45.315Z,15.68
2016-05-03T11:55:45.270Z,15.78
2016-05-03T11:56:45.257Z,15.68
2016-05-03T11:57:45.228Z,15.59
2016-05-03T11:58:45.231Z,15.68
2016-05-03T11:59:45.187Z,15.7
2016-05-03T12:00:45.033Z,15.78
2016-05-03T12:01:45.146Z,15.81
2016-05-03T12:02:44.820Z,15.97
2016-05-03T12:03:45.103Z,16.06
2016-05-03T12:04:44.950Z,16.15
2016-05-03T12:05:44.922Z,16.31
2016-05-03T12:06:45.050Z,16.65
2016-05-03T12:07:45.053Z,16.71
2016-05-03T12:08:44.883Z,16.52
2016-05-03T12:09:44.839Z,16.55
2016-05-03T12:10:44.967Z,16.4
2016-05-03T12:11:44.813Z,16.42
2016-05-03T12:12:44.785Z,16.35
2016-05-03T12:13:44.771Z,16.3
2016-05-03T12:14:44.900Z,16
2016-05-03T12:15:44.886Z,15.75
2016-05-03T12:16:44.857Z,15.74
2016-05-03T12:17:44.845Z,15.72
2016-05-03T12:18:44.832Z,15.51
2016-05-03T12:19:44.804Z,15.42
2016-05-03T12:20:44.775Z,15.46
2016-05-03T12:21:44.762Z,15.68
2016-05-03T12:22:45.030Z,15.72
2016-05-03T12:23:48.033Z,15.94
2016-05-03T12:24:44.724Z,15.76
2016-05-03T12:25:44.695Z,15.78
2016-05-03T12:26:44.665Z,15.76
2016-05-03T12:27:44.497Z,15.78
2016-05-03T12:28:44.625Z,15.86
2016-05-03T12:29:44.611Z,15.78
2016-05-03T12:30:44.442Z,15.57
2016-05-03T12:31:44.570Z,15.64
2016-05-03T12:32:44.542Z,15.64
2016-05-03T12:33:44.545Z,15.42
2016-05-03T12:34:44.516Z,15.35
2016-05-03T12:35:44.486Z,15.26
2016-05-03T12:36:44.474Z,15.36
2016-05-03T12:37:44.320Z,15.38
2016-05-03T12:38:44.433Z,15.42
2016-05-03T12:39:44.264Z,15.46
2016-05-03T12:40:44.407Z,15.57
2016-05-03T12:41:44.222Z,15.42
2016-05-03T12:42:44.365Z,15.45
2016-05-03T12:43:44.336Z,15.35
2016-05-03T12:44:44.323Z,15.15
2016-05-03T12:45:44.296Z,14.98
2016-05-03T12:46:44.283Z,15.17
2016-05-03T12:47:45.191Z,15.3
2016-05-03T12:48:44.460Z,15.28
2016-05-03T12:49:45.493Z,15.41
2016-05-03T12:50:47.168Z,15.43
2016-05-03T12:51:44.186Z,15.64
2016-05-03T12:52:44.032Z,15.66
2016-05-03T12:53:44.129Z,15.68
2016-05-03T12:54:44.115Z,15.57
2016-05-03T12:55:43.790Z,15.68